Station Historical Data
Daily Summary for June 10, 2011 Units:  English    Metric   Both
« Previous Day
Next Day »
Daily Weekly Monthly Yearly Custom
  High: Low: Average:
Temperature: 92.0 °F 65.9 °F 80.1 °F
Dew Point: 73.7 °F 63.0 °F 67.7 °F
Humidity: 96% 39% 69%
Wind Speed: 9.0mph 0.0mph 1.6mph
Wind Gust: 9.0mph - -
Wind- - WSW
Pressure: 29.96 in 29.85 in -
Precipitation: 0.00 in    
Historical Graphs
 
 
Tabular Data for June 10, 2011
Time Temperature Dew Point Pressure Wind Wind Speed Wind Gust Humidity Rainfall Rate (Hourly) Conditions
00:00 72.3 °F 65.1 °F 29.93 in Calm     78% 0.00 in
00:01 72.3 °F 65.1 °F 29.93 in Calm     78% 0.00 in
00:02 72.1 °F 64.9 °F 29.93 in Calm     78% 0.00 in
00:06 71.6 °F 64.8 °F 29.93 in Calm     79% 0.00 in
00:11 71.5 °F 64.7 °F 29.92 in Calm     79% 0.00 in
00:16 72.0 °F 65.5 °F 29.93 in Calm     80% 0.00 in
00:21 72.2 °F 66.1 °F 29.92 in Calm     81% 0.00 in
00:26 72.0 °F 65.9 °F 29.92 in Calm     81% 0.00 in
00:27 72.0 °F 65.9 °F 29.92 in Calm     81% 0.00 in
00:32 72.0 °F 66.2 °F 29.92 in Calm     82% 0.00 in
00:33 72.0 °F 66.2 °F 29.92 in Calm     82% 0.00 in
00:37 71.9 °F 65.8 °F 29.92 in Calm     81% 0.00 in
00:42 72.0 °F 65.1 °F 29.92 in Calm     79% 0.00 in
00:47 71.9 °F 65.0 °F 29.92 in Calm     79% 0.00 in
00:52 71.4 °F 65.3 °F 29.92 in Calm     81% 0.00 in
00:58 71.5 °F 65.4 °F 29.92 in Calm   1.0 mph 81% 0.00 in
01:03 71.2 °F 65.4 °F 29.92 in Calm     82% 0.00 in
01:08 70.8 °F 65.4 °F 29.92 in Calm     83% 0.00 in
01:13 70.9 °F 65.5 °F 29.92 in Calm     83% 0.00 in
01:18 71.5 °F 65.7 °F 29.92 in Calm     82% 0.00 in
01:23 71.4 °F 65.6 °F 29.92 in Calm     82% 0.00 in
01:24 71.4 °F 65.6 °F 29.92 in Calm     82% 0.00 in
01:28 71.3 °F 65.9 °F 29.92 in Calm     83% 0.00 in
01:33 71.1 °F 65.7 °F 29.91 in Calm     83% 0.00 in
01:34 71.0 °F 65.6 °F 29.91 in Calm     83% 0.00 in
01:38 70.7 °F 65.6 °F 29.91 in Calm     84% 0.00 in
01:43 70.6 °F 65.9 °F 29.91 in Calm     85% 0.00 in
01:48 70.5 °F 65.8 °F 29.91 in Calm     85% 0.00 in
01:53 70.3 °F 65.2 °F 29.91 in Calm     84% 0.00 in
01:58 70.1 °F 65.4 °F 29.91 in SE 1.0 mph 1.0 mph 85% 0.00 in
02:04 69.6 °F 65.2 °F 29.91 in SE 1.0 mph 1.0 mph 86% 0.00 in
02:09 69.3 °F 65.3 °F 29.91 in Calm   1.0 mph 87% 0.00 in
02:14 69.2 °F 65.2 °F 29.91 in SE 1.0 mph 1.0 mph 87% 0.00 in
02:19 69.3 °F 65.3 °F 29.91 in NE 2.0 mph 3.0 mph 87% 0.00 in
02:20 69.4 °F 65.4 °F 29.91 in NE 3.0 mph 3.0 mph 87% 0.00 in
02:24 69.6 °F 65.9 °F 29.91 in NE 1.0 mph 3.0 mph 88% 0.00 in
02:25 69.6 °F 65.9 °F 29.91 in NE 1.0 mph 3.0 mph 88% 0.00 in
02:27 69.6 °F 65.9 °F 29.91 in NE 1.0 mph 2.0 mph 88% 0.00 in
02:30 69.6 °F 65.9 °F 29.91 in Calm   1.0 mph 88% 0.00 in
02:32 69.6 °F 65.6 °F 29.91 in Calm   1.0 mph 87% 0.00 in
02:36 69.5 °F 65.5 °F 29.91 in Calm     87% 0.00 in
02:37 69.3 °F 65.3 °F 29.90 in Calm     87% 0.00 in
02:42 69.0 °F 65.3 °F 29.91 in Calm     88% 0.00 in
02:43 68.8 °F 65.1 °F 29.91 in Calm     88% 0.00 in
02:48 68.6 °F 65.6 °F 29.90 in Calm     90% 0.00 in
02:53 68.8 °F 66.4 °F 29.90 in NE 1.0 mph 1.0 mph 92% 0.00 in
02:58 68.5 °F 66.4 °F 29.90 in NE 1.0 mph 1.0 mph 93% 0.00 in
03:03 68.3 °F 66.5 °F 29.90 in Calm     94% 0.00 in
03:05 68.3 °F 66.5 °F 29.90 in Calm     94% 0.00 in
03:09 68.4 °F 66.9 °F 29.90 in Calm   1.0 mph 95% 0.00 in
03:14 68.6 °F 67.1 °F 29.90 in Calm     95% 0.00 in
03:19 68.4 °F 66.9 °F 29.90 in Calm     95% 0.00 in
03:24 68.2 °F 66.7 °F 29.90 in Calm   1.0 mph 95% 0.00 in
03:25 68.3 °F 67.1 °F 29.90 in Calm   1.0 mph 96% 0.00 in
03:29 68.6 °F 67.4 °F 29.90 in Calm   1.0 mph 96% 0.00 in
03:30 68.7 °F 67.5 °F 29.90 in NE 1.0 mph 1.0 mph 96% 0.00 in
03:33 69.0 °F 67.8 °F 29.90 in Calm   1.0 mph 96% 0.00 in
03:35 69.1 °F 67.9 °F 29.90 in Calm     96% 0.00 in
03:36 69.1 °F 67.6 °F 29.90 in Calm     95% 0.00 in
03:40 69.1 °F 67.6 °F 29.90 in ESE 1.0 mph 1.0 mph 95% 0.00 in
03:41 69.1 °F 67.6 °F 29.91 in ESE 1.0 mph 1.0 mph 95% 0.00 in
03:46 69.3 °F 67.5 °F 29.91 in East 4.0 mph 4.0 mph 94% 0.00 in
03:51 69.9 °F 66.8 °F 29.91 in East 4.0 mph 4.0 mph 90% 0.00 in
03:56 70.6 °F 66.6 °F 29.91 in ESE 4.0 mph 4.0 mph 87% 0.00 in
04:01 71.1 °F 66.4 °F 29.91 in East 2.0 mph 4.0 mph 85% 0.00 in
04:06 71.0 °F 66.3 °F 29.90 in East 1.0 mph 2.0 mph 85% 0.00 in
04:11 70.9 °F 66.5 °F 29.91 in East 2.0 mph 2.0 mph 86% 0.00 in
04:16 71.4 °F 66.7 °F 29.90 in East 1.0 mph 3.0 mph 85% 0.00 in
04:21 71.3 °F 66.2 °F 29.91 in Calm   1.0 mph 84% 0.00 in
04:26 70.7 °F 66.0 °F 29.91 in Calm     85% 0.00 in
04:27 70.6 °F 65.9 °F 29.91 in Calm     85% 0.00 in
04:28 70.5 °F 66.1 °F 29.91 in Calm     86% 0.00 in
04:33 70.2 °F 65.8 °F 29.91 in SE 1.0 mph 2.0 mph 86% 0.00 in
04:35 70.1 °F 66.1 °F 29.91 in SE 1.0 mph 2.0 mph 87% 0.00 in
04:39 69.9 °F 65.9 °F 29.91 in Calm   2.0 mph 87% 0.00 in
04:44 69.6 °F 65.9 °F 29.91 in Calm     88% 0.00 in
04:49 69.4 °F 65.7 °F 29.91 in Calm     88% 0.00 in
04:54 69.4 °F 65.7 °F 29.91 in SE 1.0 mph 1.0 mph 88% 0.00 in
04:59 69.7 °F 66.0 °F 29.91 in East 1.0 mph 2.0 mph 88% 0.00 in
05:04 69.7 °F 65.7 °F 29.91 in Calm     87% 0.00 in
05:09 69.3 °F 65.9 °F 29.91 in Calm     89% 0.00 in
05:14 68.8 °F 65.4 °F 29.91 in Calm     89% 0.00 in
05:19 68.2 °F 65.2 °F 29.91 in Calm     90% 0.00 in
05:20 68.2 °F 65.2 °F 29.91 in Calm     90% 0.00 in
05:23 68.0 °F 65.3 °F 29.91 in Calm     91% 0.00 in
05:25 67.9 °F 65.2 °F 29.91 in Calm     91% 0.00 in
05:29 67.7 °F 65.0 °F 29.91 in ESE 1.0 mph 1.0 mph 91% 0.00 in
05:30 67.6 °F 64.9 °F 29.91 in ESE 1.0 mph 1.0 mph 91% 0.00 in
05:35 67.4 °F 65.0 °F 29.91 in East 1.0 mph 1.0 mph 92% 0.00 in
05:37 67.3 °F 64.9 °F 29.91 in NNE 1.0 mph 1.0 mph 92% 0.00 in
05:40 67.1 °F 65.0 °F 29.91 in NNE 1.0 mph 1.0 mph 93% 0.00 in
05:42 67.0 °F 64.9 °F 29.91 in Calm   1.0 mph 93% 0.00 in
05:45 66.8 °F 64.7 °F 29.91 in NNE 1.0 mph 1.0 mph 93% 0.00 in
05:51 66.6 °F 64.8 °F 29.92 in NNE 1.0 mph 1.0 mph 94% 0.00 in
05:56 66.2 °F 64.4 °F 29.92 in North 1.0 mph 2.0 mph 94% 0.00 in
06:01 66.1 °F 64.3 °F 29.92 in Calm   1.0 mph 94% 0.00 in
06:06 65.9 °F 64.4 °F 29.92 in Calm     95% 0.00 in
06:11 65.9 °F 64.4 °F 29.93 in Calm     95% 0.00 in
06:12 65.9 °F 64.4 °F 29.93 in Calm     95% 0.00 in
06:16 65.9 °F 64.4 °F 29.92 in Calm     95% 0.00 in
06:21 66.0 °F 64.5 °F 29.93 in Calm     95% 0.00 in
06:26 66.1 °F 64.6 °F 29.93 in Calm     95% 0.00 in
06:27 66.1 °F 64.6 °F 29.93 in Calm     95% 0.00 in
06:28 66.1 °F 64.6 °F 29.93 in Calm     95% 0.00 in
06:31 66.0 °F 64.5 °F 29.93 in Calm     95% 0.00 in
06:32 66.0 °F 64.5 °F 29.93 in Calm     95% 0.00 in
06:34 66.0 °F 64.5 °F 29.93 in Calm     95% 0.00 in
06:38 65.9 °F 64.4 °F 29.93 in Calm     95% 0.00 in
06:39 66.0 °F 64.5 °F 29.93 in Calm     95% 0.00 in
06:43 66.1 °F 64.9 °F 29.94 in Calm   1.0 mph 96% 0.00 in
06:48 66.0 °F 64.5 °F 29.94 in Calm     95% 0.00 in
06:53 66.4 °F 65.2 °F 29.94 in East 2.0 mph 2.0 mph 96% 0.00 in
06:58 66.9 °F 65.4 °F 29.94 in East 1.0 mph 1.0 mph 95% 0.00 in
07:03 67.4 °F 65.3 °F 29.94 in NNW 1.0 mph 2.0 mph 93% 0.00 in
07:08 67.5 °F 65.4 °F 29.94 in Calm   2.0 mph 93% 0.00 in
07:13 67.6 °F 65.2 °F 29.94 in Calm   1.0 mph 92% 0.00 in
07:18 68.0 °F 65.9 °F 29.95 in Calm     93% 0.00 in
07:20 68.2 °F 65.8 °F 29.95 in Calm     92% 0.00 in
07:23 68.4 °F 65.7 °F 29.95 in Calm     91% 0.00 in
07:25 68.6 °F 65.9 °F 29.95 in Calm     91% 0.00 in
07:27 68.7 °F 65.7 °F 29.95 in Calm     90% 0.00 in
07:32 69.4 °F 66.7 °F 29.95 in Calm     91% 0.00 in
07:34 70.0 °F 66.9 °F 29.95 in Calm     90% 0.00 in
07:37 70.1 °F 66.7 °F 29.95 in Calm     89% 0.00 in
07:40 70.2 °F 66.8 °F 29.95 in Calm     89% 0.00 in
07:42 70.1 °F 66.7 °F 29.95 in Calm     89% 0.00 in
07:45 70.1 °F 66.7 °F 29.95 in Calm     89% 0.00 in
07:48 70.1 °F 67.0 °F 29.95 in Calm     90% 0.00 in
07:50 70.1 °F 67.0 °F 29.95 in North 1.0 mph 1.0 mph 90% 0.00 in
07:54 70.1 °F 67.4 °F 29.95 in NNW 2.0 mph 2.0 mph 91% 0.00 in
07:56 70.2 °F 67.4 °F 29.95 in NNW 1.0 mph 2.0 mph 91% 0.00 in
08:00 70.5 °F 67.8 °F 29.95 in Calm   1.0 mph 91% 0.00 in
08:01 70.7 °F 68.3 °F 29.95 in Calm   1.0 mph 92% 0.00 in
08:06 71.8 °F 69.0 °F 29.95 in Calm     91% 0.00 in
08:11 73.6 °F 69.8 °F 29.95 in Calm     88% 0.00 in
08:16 74.7 °F 70.2 °F 29.95 in Calm     86% 0.00 in
08:17 74.7 °F 70.2 °F 29.95 in Calm     86% 0.00 in
08:22 75.6 °F 70.4 °F 29.95 in SE 1.0 mph 1.0 mph 84% 0.00 in
08:27 75.6 °F 69.7 °F 29.95 in SE 2.0 mph 2.0 mph 82% 0.00 in
08:28 75.7 °F 69.8 °F 29.95 in SSE 1.0 mph 2.0 mph 82% 0.00 in
08:32 76.3 °F 70.4 °F 29.95 in SSE 1.0 mph 2.0 mph 82% 0.00 in
08:33 76.5 °F 70.6 °F 29.95 in SE 1.0 mph 2.0 mph 82% 0.00 in
08:34 76.5 °F 70.6 °F 29.95 in SSE 1.0 mph 2.0 mph 82% 0.00 in
08:35 76.6 °F 70.7 °F 29.95 in SSE 1.0 mph 2.0 mph 82% 0.00 in
08:39 77.4 °F 70.8 °F 29.95 in SSE 1.0 mph 2.0 mph 80% 0.00 in
08:40 77.5 °F 70.8 °F 29.95 in SE 1.0 mph 2.0 mph 80% 0.00 in
08:44 77.9 °F 70.9 °F 29.95 in SW 2.0 mph 2.0 mph 79% 0.00 in
08:49 78.1 °F 69.9 °F 29.95 in SSW 1.0 mph 2.0 mph 76% 0.00 in
08:54 78.5 °F 69.5 °F 29.95 in SSW 1.0 mph 2.0 mph 74% 0.00 in
08:59 78.9 °F 69.1 °F 29.95 in SSE 1.0 mph 3.0 mph 72% 0.00 in
09:04 79.6 °F 68.5 °F 29.95 in SSW 1.0 mph 3.0 mph 69% 0.00 in
09:09 80.0 °F 70.2 °F 29.95 in SW 2.0 mph 3.0 mph 72% 0.00 in
09:14 80.1 °F 69.0 °F 29.95 in WSW 1.0 mph 2.0 mph 69% 0.00 in
09:19 80.3 °F 68.8 °F 29.95 in SW 3.0 mph 3.0 mph 68% 0.00 in
09:20 80.3 °F 68.8 °F 29.95 in WSW 3.0 mph 3.0 mph 68% 0.00 in
09:24 80.3 °F 68.8 °F 29.95 in SW 3.0 mph 3.0 mph 68% 0.00 in
09:28 80.5 °F 68.5 °F 29.95 in SW 2.0 mph 3.0 mph 67% 0.00 in
09:29 80.5 °F 69.4 °F 29.95 in West 1.0 mph 2.0 mph 69% 0.00 in
09:34 81.0 °F 70.3 °F 29.95 in SW 1.0 mph 3.0 mph 70% 0.00 in
09:36 81.1 °F 69.1 °F 29.96 in WSW 4.0 mph 6.0 mph 67% 0.00 in
09:39 80.9 °F 69.8 °F 29.95 in SW 2.0 mph 5.0 mph 69% 0.00 in
09:41 80.9 °F 69.4 °F 29.95 in West 3.0 mph 6.0 mph 68% 0.00 in
09:46 81.0 °F 69.9 °F 29.96 in WSW 5.0 mph 6.0 mph 69% 0.00 in
09:51 80.9 °F 70.6 °F 29.96 in West 2.0 mph 6.0 mph 71% 0.00 in
09:56 81.1 °F 71.2 °F 29.96 in WNW 4.0 mph 6.0 mph 72% 0.00 in
10:02 81.4 °F 70.7 °F 29.96 in West 3.0 mph 6.0 mph 70% 0.00 in
10:07 81.4 °F 69.4 °F 29.96 in WNW 5.0 mph 6.0 mph 67% 0.00 in
10:12 81.7 °F 70.1 °F 29.96 in NNW 4.0 mph 4.0 mph 68% 0.00 in
10:17 81.8 °F 70.2 °F 29.96 in NW 2.0 mph 5.0 mph 68% 0.00 in
10:18 81.9 °F 71.2 °F 29.96 in WNW 3.0 mph 5.0 mph 70% 0.00 in
10:22 82.0 °F 69.5 °F 29.96 in WNW 5.0 mph 6.0 mph 66% 0.00 in
10:23 82.0 °F 70.8 °F 29.96 in NW 3.0 mph 6.0 mph 69% 0.00 in
10:27 82.2 °F 71.9 °F 29.96 in WNW 6.0 mph 7.0 mph 71% 0.00 in
10:32 82.0 °F 70.0 °F 29.96 in WNW 5.0 mph 8.0 mph 67% 0.00 in
10:37 81.8 °F 69.8 °F 29.96 in NW 3.0 mph 6.0 mph 67% 0.00 in
10:42 82.0 °F 70.8 °F 29.96 in WNW 2.0 mph 6.0 mph 69% 0.00 in
10:47 82.3 °F 70.3 °F 29.96 in NW 4.0 mph 6.0 mph 67% 0.00 in
10:52 82.5 °F 70.4 °F 29.96 in WNW 6.0 mph 6.0 mph 67% 0.00 in
10:57 82.6 °F 70.5 °F 29.96 in WNW 3.0 mph 8.0 mph 67% 0.00 in
11:02 82.7 °F 70.2 °F 29.96 in WNW 6.0 mph 7.0 mph 66% 0.00 in
11:03 82.7 °F 70.2 °F 29.96 in WNW 6.0 mph 7.0 mph 66% 0.00 in
11:08 82.9 °F 70.8 °F 29.96 in West 3.0 mph 6.0 mph 67% 0.00 in
11:13 83.5 °F 70.9 °F 29.96 in NW 2.0 mph 5.0 mph 66% 0.00 in
11:18 83.7 °F 70.2 °F 29.96 in West 3.0 mph 6.0 mph 64% 0.00 in
11:23 84.1 °F 71.1 °F 29.96 in WNW 3.0 mph 4.0 mph 65% 0.00 in
11:27 84.4 °F 70.4 °F 29.96 in NW 4.0 mph 4.0 mph 63% 0.00 in
11:28 84.4 °F 70.4 °F 29.96 in NW 3.0 mph 4.0 mph 63% 0.00 in
11:32 84.6 °F 70.6 °F 29.96 in ENE 2.0 mph 4.0 mph 63% 0.00 in
11:34 84.8 °F 70.8 °F 29.96 in WNW 4.0 mph 4.0 mph 63% 0.00 in
11:35 84.8 °F 70.8 °F 29.96 in WNW 5.0 mph 6.0 mph 63% 0.00 in
11:37 84.8 °F 70.3 °F 29.96 in North 2.0 mph 6.0 mph 62% 0.00 in
11:38 84.9 °F 70.0 °F 29.96 in NW 1.0 mph 6.0 mph 61% 0.00 in
11:39 85.0 °F 71.0 °F 29.96 in NW 4.0 mph 4.0 mph 63% 0.00 in
11:40 85.2 °F 71.7 °F 29.96 in WNW 3.0 mph 4.0 mph 64% 0.00 in
11:41 85.2 °F 71.7 °F 29.96 in WNW 3.0 mph 4.0 mph 64% 0.00 in
11:45 85.5 °F 70.5 °F 29.96 in WNW 3.0 mph 5.0 mph 61% 0.00 in
11:47 85.6 °F 72.0 °F 29.96 in West 2.0 mph 5.0 mph 64% 0.00 in
11:52 86.0 °F 70.5 °F 29.96 in SSE 1.0 mph 2.0 mph 60% 0.00 in
11:57 87.1 °F 68.4 °F 29.96 in North 3.0 mph 4.0 mph 54% 0.00 in
12:02 86.8 °F 70.8 °F 29.96 in NW 3.0 mph 5.0 mph 59% 0.00 in
12:03 86.8 °F 71.3 °F 29.96 in NW 2.0 mph 5.0 mph 60% 0.00 in
12:08 87.2 °F 69.6 °F 29.96 in WNW 2.0 mph 5.0 mph 56% 0.00 in
12:13 87.0 °F 68.9 °F 29.96 in NNW 4.0 mph 5.0 mph 55% 0.00 in
12:18 86.8 °F 69.8 °F 29.96 in Calm   5.0 mph 57% 0.00 in
12:23 87.2 °F 69.6 °F 29.96 in WNW 7.0 mph 7.0 mph 56% 0.00 in
12:24 87.1 °F 69.5 °F 29.96 in West 3.0 mph 7.0 mph 56% 0.00 in
12:26 86.9 °F 70.4 °F 29.96 in NW 3.0 mph 7.0 mph 58% 0.00 in
12:29 86.9 °F 69.8 °F 29.96 in NNE 2.0 mph 6.0 mph 57% 0.00 in
12:30 86.9 °F 69.8 °F 29.96 in ENE 1.0 mph 6.0 mph 57% 0.00 in
12:33 87.0 °F 71.4 °F 29.96 in WNW 4.0 mph 5.0 mph 60% 0.00 in
12:34 87.1 °F 68.4 °F 29.96 in SW 2.0 mph 5.0 mph 54% 0.00 in
12:39 87.2 °F 69.1 °F 29.96 in South 3.0 mph 7.0 mph 55% 0.00 in
12:44 87.7 °F 69.0 °F 29.96 in SSW 2.0 mph 7.0 mph 54% 0.00 in
12:46 87.7 °F 69.0 °F 29.96 in West 3.0 mph 7.0 mph 54% 0.00 in
12:49 87.5 °F 69.4 °F 29.96 in WNW 4.0 mph 6.0 mph 55% 0.00 in
12:51 87.6 °F 68.9 °F 29.96 in NNW 1.0 mph 4.0 mph 54% 0.00 in
12:52 87.6 °F 68.9 °F 29.96 in NNW 1.0 mph 4.0 mph 54% 0.00 in
12:57 88.1 °F 68.8 °F 29.95 in WNW 1.0 mph 3.0 mph 53% 0.00 in
13:02 88.1 °F 69.4 °F 29.95 in WSW 1.0 mph 3.0 mph 54% 0.00 in
13:07 88.0 °F 68.7 °F 29.95 in SSW 2.0 mph 5.0 mph 53% 0.00 in
13:12 88.3 °F 67.9 °F 29.95 in WSW 5.0 mph 6.0 mph 51% 0.00 in
13:17 89.1 °F 68.6 °F 29.95 in West 3.0 mph 6.0 mph 51% 0.00 in
13:22 88.8 °F 66.6 °F 29.95 in WNW 4.0 mph 7.0 mph 48% 0.00 in
13:23 88.7 °F 67.1 °F 29.95 in WNW 4.0 mph 6.0 mph 49% 0.00 in
13:27 88.5 °F 68.1 °F 29.95 in WNW 3.0 mph 7.0 mph 51% 0.00 in
13:28 88.5 °F 68.1 °F 29.95 in WNW 3.0 mph 7.0 mph 51% 0.00 in
13:33 88.5 °F 68.6 °F 29.95 in NW 2.0 mph 5.0 mph 52% 0.00 in
13:37 88.5 °F 68.1 °F 29.95 in NW 2.0 mph 5.0 mph 51% 0.00 in
13:39 88.6 °F 67.6 °F 29.95 in NNE 4.0 mph 5.0 mph 50% 0.00 in
13:44 89.0 °F 66.2 °F 29.94 in SW 3.0 mph 3.0 mph 47% 0.00 in
13:45 89.2 °F 68.2 °F 29.95 in West 5.0 mph 6.0 mph 50% 0.00 in
13:50 88.7 °F 67.1 °F 29.94 in West 2.0 mph 7.0 mph 49% 0.00 in
13:55 88.9 °F 67.3 °F 29.94 in SE 2.0 mph 7.0 mph 49% 0.00 in
14:00 89.0 °F 68.0 °F 29.94 in Calm   5.0 mph 50% 0.00 in
14:05 89.6 °F 68.5 °F 29.93 in NNW 6.0 mph 6.0 mph 50% 0.00 in
14:10 89.4 °F 67.1 °F 29.93 in NNW 3.0 mph 5.0 mph 48% 0.00 in
14:11 89.4 °F 67.7 °F 29.93 in NNE 2.0 mph 5.0 mph 49% 0.00 in
14:16 89.6 °F 69.1 °F 29.93 in East 2.0 mph 3.0 mph 51% 0.00 in
14:21 90.1 °F 69.6 °F 29.93 in SW 3.0 mph 4.0 mph 51% 0.00 in
14:22 90.2 °F 69.6 °F 29.93 in WSW 2.0 mph 3.0 mph 51% 0.00 in
14:23 90.4 °F 69.8 °F 29.93 in West 5.0 mph 7.0 mph 51% 0.00 in
14:26 90.3 °F 69.2 °F 29.93 in West 3.0 mph 7.0 mph 50% 0.00 in
14:27 90.4 °F 69.2 °F 29.93 in WNW 8.0 mph 8.0 mph 50% 0.00 in
14:29 90.1 °F 68.4 °F 29.93 in WNW 5.0 mph 8.0 mph 49% 0.00 in
14:31 89.8 °F 68.7 °F 29.93 in NNW 2.0 mph 7.0 mph 50% 0.00 in
14:36 89.8 °F 69.3 °F 29.93 in WNW 4.0 mph 5.0 mph 51% 0.00 in
14:37 89.8 °F 68.1 °F 29.92 in WNW 3.0 mph 5.0 mph 49% 0.00 in
14:41 89.9 °F 69.4 °F 29.92 in SE 3.0 mph 3.0 mph 51% 0.00 in
14:42 89.9 °F 68.2 °F 29.92 in WNW 3.0 mph 3.0 mph 49% 0.00 in
14:46 89.9 °F 68.2 °F 29.92 in WNW 5.0 mph 8.0 mph 49% 0.00 in
14:47 89.8 °F 69.8 °F 29.92 in West 3.0 mph 8.0 mph 52% 0.00 in
14:51 90.0 °F 68.3 °F 29.92 in NW 4.0 mph 6.0 mph 49% 0.00 in
14:56 90.1 °F 69.0 °F 29.92 in SW 4.0 mph 6.0 mph 50% 0.00 in
15:01 90.4 °F 67.4 °F 29.92 in South 3.0 mph 7.0 mph 47% 0.00 in
15:06 90.5 °F 67.5 °F 29.91 in NW 5.0 mph 8.0 mph 47% 0.00 in
15:11 90.2 °F 67.9 °F 29.91 in WNW 5.0 mph 8.0 mph 48% 0.00 in
15:16 90.2 °F 70.2 °F 29.91 in West 5.0 mph 8.0 mph 52% 0.00 in
15:21 90.4 °F 68.1 °F 29.91 in WNW 3.0 mph 4.0 mph 48% 0.00 in
15:26 90.4 °F 66.2 °F 29.91 in South 7.0 mph 9.0 mph 45% 0.00 in
15:27 90.4 °F 66.8 °F 29.91 in South 5.0 mph 8.0 mph 46% 0.00 in
15:32 90.1 °F 65.9 °F 29.91 in SW 3.0 mph 6.0 mph 45% 0.00 in
15:37 90.1 °F 69.0 °F 29.91 in WSW 1.0 mph 3.0 mph 50% 0.00 in
15:38 90.4 °F 67.4 °F 29.91 in West 1.0 mph 3.0 mph 47% 0.00 in
15:42 90.8 °F 67.8 °F 29.91 in SSW 4.0 mph 4.0 mph 47% 0.00 in
15:44 90.8 °F 66.6 °F 29.91 in SSE 3.0 mph 5.0 mph 45% 0.00 in
15:48 91.1 °F 68.1 °F 29.91 in SSE 4.0 mph 7.0 mph 47% 0.00 in
15:53 91.5 °F 67.8 °F 29.91 in SSE 3.0 mph 5.0 mph 46% 0.00 in
15:58 91.6 °F 66.0 °F 29.90 in NW 4.0 mph 4.0 mph 43% 0.00 in
16:03 91.5 °F 65.9 °F 29.90 in SE 1.0 mph 8.0 mph 43% 0.00 in
16:08 91.5 °F 63.1 °F 29.90 in NW 6.0 mph 9.0 mph 39% 0.00 in
16:09 91.3 °F 64.3 °F 29.90 in West 4.0 mph 6.0 mph 41% 0.00 in
16:14 91.4 °F 64.4 °F 29.90 in West 6.0 mph 8.0 mph 41% 0.00 in
16:19 91.0 °F 64.7 °F 29.90 in West 3.0 mph 8.0 mph 42% 0.00 in
16:24 91.2 °F 63.5 °F 29.89 in West 1.0 mph 5.0 mph 40% 0.00 in
16:25 91.2 °F 63.5 °F 29.89 in Calm   5.0 mph 40% 0.00 in
16:29 91.9 °F 64.9 °F 29.89 in West 1.0 mph 5.0 mph 41% 0.00 in
16:30 91.9 °F 64.9 °F 29.89 in SW 3.0 mph 5.0 mph 41% 0.00 in
16:31 91.9 °F 64.2 °F 29.89 in SSW 1.0 mph 5.0 mph 40% 0.00 in
16:35 92.0 °F 64.2 °F 29.89 in WSW 9.0 mph 9.0 mph 40% 0.00 in
16:36 91.9 °F 63.4 °F 29.89 in SSW 5.0 mph 9.0 mph 39% 0.00 in
16:41 91.5 °F 64.5 °F 29.89 in WNW 6.0 mph 7.0 mph 41% 0.00 in
16:46 91.5 °F 66.5 °F 29.88 in NNW 2.0 mph 5.0 mph 44% 0.00 in
16:52 91.5 °F 65.2 °F 29.88 in WNW 5.0 mph 8.0 mph 42% 0.00 in
16:53 91.4 °F 63.0 °F 29.88 in West 4.0 mph 8.0 mph 39% 0.00 in
16:57 91.3 °F 65.7 °F 29.88 in NNW 3.0 mph 4.0 mph 43% 0.00 in
16:58 91.4 °F 65.8 °F 29.88 in North 3.0 mph 4.0 mph 43% 0.00 in
17:03 91.6 °F 63.9 °F 29.88 in NNW 4.0 mph 4.0 mph 40% 0.00 in
17:04 91.6 °F 65.3 °F 29.88 in WNW 2.0 mph 4.0 mph 42% 0.00 in
17:08 91.5 °F 65.2 °F 29.88 in WNW 4.0 mph 6.0 mph 42% 0.00 in
17:09 91.6 °F 64.6 °F 29.88 in West 3.0 mph 6.0 mph 41% 0.00 in
17:14 91.5 °F 65.2 °F 29.88 in WSW 2.0 mph 5.0 mph 42% 0.00 in
17:19 91.1 °F 65.5 °F 29.88 in NW 4.0 mph 5.0 mph 43% 0.00 in
17:20 91.1 °F 67.5 °F 29.88 in WNW 2.0 mph 5.0 mph 46% 0.00 in
17:21 91.1 °F 67.5 °F 29.88 in WNW 5.0 mph 5.0 mph 46% 0.00 in
17:24 91.0 °F 66.1 °F 29.87 in WNW 4.0 mph 8.0 mph 44% 0.00 in
17:26 91.1 °F 64.1 °F 29.87 in West 4.0 mph 8.0 mph 41% 0.00 in
17:27 91.1 °F 64.1 °F 29.87 in WNW 6.0 mph 8.0 mph 41% 0.00 in
17:30 91.0 °F 64.7 °F 29.87 in SW 2.0 mph 5.0 mph 42% 0.00 in
17:32 91.0 °F 64.7 °F 29.87 in WSW 3.0 mph 6.0 mph 42% 0.00 in
17:36 91.1 °F 64.1 °F 29.87 in West 5.0 mph 7.0 mph 41% 0.00 in
17:37 91.0 °F 65.4 °F 29.87 in NW 4.0 mph 7.0 mph 43% 0.00 in
17:41 90.9 °F 66.0 °F 29.87 in WSW 4.0 mph 7.0 mph 44% 0.00 in
17:42 90.9 °F 65.3 °F 29.87 in WSW 3.0 mph 7.0 mph 43% 0.00 in
17:47 91.2 °F 66.3 °F 29.87 in SW 5.0 mph 5.0 mph 44% 0.00 in
17:52 91.1 °F 66.2 °F 29.87 in WNW 6.0 mph 6.0 mph 44% 0.00 in
17:57 90.9 °F 66.0 °F 29.87 in NW 6.0 mph 6.0 mph 44% 0.00 in
18:02 90.9 °F 67.9 °F 29.87 in NW 2.0 mph 4.0 mph 47% 0.00 in
18:07 91.0 °F 65.4 °F 29.87 in NW 1.0 mph 3.0 mph 43% 0.00 in
18:08 91.1 °F 67.5 °F 29.86 in West 2.0 mph 2.0 mph 46% 0.00 in
18:14 91.0 °F 68.6 °F 29.86 in NW 2.0 mph 4.0 mph 48% 0.00 in
18:19 90.9 °F 68.5 °F 29.86 in West 4.0 mph 5.0 mph 48% 0.00 in
18:20 90.9 °F 68.5 °F 29.86 in West 3.0 mph 5.0 mph 48% 0.00 in
18:25 91.1 °F 67.5 °F 29.86 in WNW 3.0 mph 3.0 mph 46% 0.00 in
18:30 90.9 °F 66.6 °F 29.86 in WNW 1.0 mph 3.0 mph 45% 0.00 in
18:31 90.9 °F 66.6 °F 29.86 in NW 2.0 mph 3.0 mph 45% 0.00 in
18:32 90.8 °F 67.8 °F 29.86 in WNW 3.0 mph 3.0 mph 47% 0.00 in
18:36 90.8 °F 67.2 °F 29.86 in WSW 5.0 mph 5.0 mph 46% 0.00 in
18:41 90.7 °F 68.3 °F 29.86 in West 3.0 mph 3.0 mph 48% 0.00 in
18:46 90.4 °F 67.4 °F 29.86 in WNW 3.0 mph 4.0 mph 47% 0.00 in
18:47 90.3 °F 66.7 °F 29.86 in WNW 2.0 mph 4.0 mph 46% 0.00 in
18:52 90.1 °F 67.2 °F 29.86 in Calm   3.0 mph 47% 0.00 in
18:57 90.4 °F 67.4 °F 29.86 in NW 2.0 mph 2.0 mph 47% 0.00 in
19:02 90.4 °F 66.8 °F 29.86 in NW 1.0 mph 2.0 mph 46% 0.00 in
19:07 90.7 °F 67.1 °F 29.86 in NW 2.0 mph 2.0 mph 46% 0.00 in
19:13 90.7 °F 67.1 °F 29.86 in WNW 1.0 mph 2.0 mph 46% 0.00 in
19:18 90.7 °F 67.7 °F 29.86 in WNW 2.0 mph 2.0 mph 47% 0.00 in
19:19 90.6 °F 67.6 °F 29.86 in West 2.0 mph 2.0 mph 47% 0.00 in
19:24 90.5 °F 65.6 °F 29.85 in NNW 1.0 mph 1.0 mph 44% 0.00 in
19:25 90.5 °F 65.6 °F 29.85 in NNW 2.0 mph 2.0 mph 44% 0.00 in
19:30 90.4 °F 68.7 °F 29.86 in Calm   2.0 mph 49% 0.00 in
19:31 90.4 °F 66.8 °F 29.86 in NNW 2.0 mph 2.0 mph 46% 0.00 in
19:32 90.3 °F 68.0 °F 29.86 in NW 1.0 mph 2.0 mph 48% 0.00 in
19:35 90.2 °F 67.3 °F 29.86 in Calm   1.0 mph 47% 0.00 in
19:37 90.3 °F 67.3 °F 29.86 in NW 1.0 mph 1.0 mph 47% 0.00 in
19:38 90.3 °F 67.3 °F 29.86 in NW 1.0 mph 1.0 mph 47% 0.00 in
19:42 90.2 °F 67.9 °F 29.86 in NW 2.0 mph 2.0 mph 48% 0.00 in
19:44 89.9 °F 67.6 °F 29.86 in NW 1.0 mph 3.0 mph 48% 0.00 in
19:47 89.7 °F 68.6 °F 29.86 in NNW 1.0 mph 1.0 mph 50% 0.00 in
19:52 89.5 °F 68.4 °F 29.86 in NNW 1.0 mph 2.0 mph 50% 0.00 in
19:57 89.2 °F 68.2 °F 29.86 in NW 1.0 mph 2.0 mph 50% 0.00 in
20:02 88.9 °F 70.1 °F 29.86 in NW 1.0 mph 1.0 mph 54% 0.00 in
20:07 88.4 °F 71.2 °F 29.86 in Calm   1.0 mph 57% 0.00 in
20:12 88.0 °F 73.4 °F 29.86 in Calm     62% 0.00 in
20:17 87.6 °F 73.0 °F 29.86 in Calm     62% 0.00 in
20:23 87.4 °F 72.8 °F 29.86 in Calm     62% 0.00 in
20:28 86.4 °F 73.7 °F 29.86 in Calm   1.0 mph 66% 0.00 in
20:34 85.4 °F 72.3 °F 29.86 in Calm     65% 0.00 in
20:37 85.3 °F 72.2 °F 29.86 in Calm     65% 0.00 in
20:40 85.2 °F 71.7 °F 29.86 in Calm     64% 0.00 in
20:42 85.1 °F 70.6 °F 29.86 in Calm     62% 0.00 in
20:44 85.1 °F 72.0 °F 29.86 in Calm     65% 0.00 in
20:46 85.0 °F 71.9 °F 29.86 in Calm     65% 0.00 in
20:49 84.6 °F 71.6 °F 29.86 in Calm     65% 0.00 in
20:54 83.9 °F 70.9 °F 29.86 in Calm     65% 0.00 in
20:59 83.3 °F 71.2 °F 29.86 in Calm     67% 0.00 in
21:00 83.2 °F 71.1 °F 29.86 in Calm     67% 0.00 in
21:05 82.7 °F 70.6 °F 29.86 in Calm     67% 0.00 in
21:10 82.4 °F 70.3 °F 29.86 in Calm     67% 0.00 in
21:15 82.3 °F 70.3 °F 29.86 in Calm     67% 0.00 in
21:20 82.1 °F 70.5 °F 29.86 in Calm     68% 0.00 in
21:21 82.0 °F 70.4 °F 29.86 in Calm     68% 0.00 in
21:23 81.9 °F 70.3 °F 29.86 in Calm     68% 0.00 in
21:26 81.6 °F 69.6 °F 29.86 in Calm     67% 0.00 in
21:27 81.6 °F 69.6 °F 29.86 in Calm     67% 0.00 in
21:28 81.5 °F 69.5 °F 29.86 in Calm     67% 0.00 in
21:29 81.5 °F 69.5 °F 29.86 in Calm     67% 0.00 in
21:33 81.4 °F 69.4 °F 29.86 in Calm     67% 0.00 in
21:34 81.4 °F 69.4 °F 29.86 in Calm     67% 0.00 in
21:35 81.4 °F 69.4 °F 29.86 in Calm     67% 0.00 in
21:37 81.3 °F 69.3 °F 29.86 in Calm     67% 0.00 in
21:39 81.2 °F 69.2 °F 29.86 in Calm     67% 0.00 in
21:42 81.2 °F 68.8 °F 29.85 in Calm     66% 0.00 in
21:44 81.3 °F 68.4 °F 29.85 in Calm     65% 0.00 in
21:47 81.4 °F 69.8 °F 29.85 in Calm     68% 0.00 in
21:52 80.8 °F 69.7 °F 29.86 in Calm     69% 0.00 in
21:57 80.0 °F 69.3 °F 29.86 in Calm     70% 0.00 in
22:02 79.0 °F 69.2 °F 29.86 in Calm     72% 0.00 in
22:07 78.6 °F 69.6 °F 29.86 in Calm     74% 0.00 in
22:13 78.4 °F 69.4 °F 29.86 in Calm     74% 0.00 in
22:15 78.5 °F 69.5 °F 29.86 in Calm     74% 0.00 in
22:20 78.7 °F 69.3 °F 29.86 in Calm     73% 0.00 in
22:25 78.5 °F 69.1 °F 29.86 in Calm     73% 0.00 in
22:27 78.3 °F 68.9 °F 29.87 in Calm     73% 0.00 in
22:29 78.1 °F 69.1 °F 29.87 in Calm     74% 0.00 in
22:34 77.8 °F 69.2 °F 29.87 in Calm     75% 0.00 in
22:39 77.8 °F 68.9 °F 29.87 in Calm   1.0 mph 74% 0.00 in
22:45 77.8 °F 68.9 °F 29.87 in Calm     74% 0.00 in
22:50 77.6 °F 69.1 °F 29.88 in Calm     75% 0.00 in
22:55 77.1 °F 68.2 °F 29.88 in Calm     74% 0.00 in
23:00 77.1 °F 67.8 °F 29.87 in Calm     73% 0.00 in
23:05 77.5 °F 67.8 °F 29.87 in Calm     72% 0.00 in
23:10 77.5 °F 68.2 °F 29.88 in Calm     73% 0.00 in
23:16 76.8 °F 68.3 °F 29.88 in Calm     75% 0.00 in
23:21 75.7 °F 68.7 °F 29.88 in Calm   4.0 mph 79% 0.00 in
23:22 75.5 °F 68.5 °F 29.88 in Calm   2.0 mph 79% 0.00 in
23:26 75.1 °F 68.5 °F 29.88 in Calm     80% 0.00 in
23:27 75.0 °F 68.4 °F 29.88 in Calm     80% 0.00 in
23:28 75.0 °F 68.4 °F 29.88 in Calm     80% 0.00 in
23:32 75.0 °F 68.4 °F 29.88 in Calm     80% 0.00 in
23:34 74.9 °F 68.3 °F 29.88 in WSW 1.0 mph 1.0 mph 80% 0.00 in
23:37 74.9 °F 68.3 °F 29.88 in West 1.0 mph 1.0 mph 80% 0.00 in
23:40 74.9 °F 68.3 °F 29.88 in West 1.0 mph 1.0 mph 80% 0.00 in
23:45 75.0 °F 68.4 °F 29.88 in Calm     80% 0.00 in
23:46 75.0 °F 68.4 °F 29.88 in Calm     80% 0.00 in
23:47 74.9 °F 68.3 °F 29.88 in Calm     80% 0.00 in
23:52 74.7 °F 68.1 °F 29.88 in Calm     80% 0.00 in
23:57 74.7 °F 68.1 °F 29.88 in Calm   1.0 mph 80% 0.00 in
Compliments of Weather Underground